Glenrock, Wyoming
Current Conditions -  °F | °C
As of 11:53 PM on Wednesday 22 Oct 2014 (Local Time) from KDGW Reporting Station
Clear Clear  
Wind Chill: 29°   Ceiling: Unl
Heat Index: 33°   Visibility: 10mi
Dew Point: 16°   Wind: 5mph
Humidity: 50%   Direction: 100°E
Pressure: 30.11"   Gusts: NA
Location:  42.86°N, 105.87°W
Report Text: KDGW 230553Z AUTO 10004KT 10SM CLR 01/M09 A3011 RMK AO2 SLP188 T00061089 10144 20000 53001
Loading
Personal Weather Stations






























Interactive Weather Map
Tropical Storm Tracking
New forecast layout! Learn more

10-Day Weather Forecast

Advertisements
Track Severe Weather on mobile